TimeCDT,TemperatureF,Dew PointF,Humidity,Sea Level PressureIn,VisibilityMPH,Wind Direction,Wind SpeedMPH,Gust SpeedMPH,PrecipitationIn,Events,Conditions,WindDirDegrees,DateUTC
12:17 AM,64.4,64.4,100,29.72,1.8,Calm,Calm,-,0.04,Rain,Heavy Rain,0,2013-09-10 05:17:00
12:36 AM,64.4,64.4,100,29.71,1.8,Calm,Calm,-,0.17,Rain,Heavy Rain,0,2013-09-10 05:36:00
12:57 AM,64.4,64.4,100,29.71,7.0,Calm,Calm,-,0.02,,Drizzle,0,2013-09-10 05:57:00
1:17 AM,64.4,64.4,100,29.71,5.0,Calm,Calm,-,0.04,,Drizzle,0,2013-09-10 06:17:00
1:36 AM,64.4,64.4,100,29.72,7.0,Calm,Calm,-,0.04,,Overcast,0,2013-09-10 06:36:00
1:57 AM,64.4,64.4,100,29.72,7.0,Calm,Calm,-,N/A,,Overcast,0,2013-09-10 06:57:00
2:17 AM,64.4,64.4,100,29.73,5.0,Calm,Calm,-,N/A,,Overcast,0,2013-09-10 07:17:00
2:36 AM,64.4,64.4,100,29.73,10.0,WSW,4.6,-,N/A,,Overcast,250,2013-09-10 07:36:00
2:57 AM,66.2,64.4,94,29.73,4.0,West,5.8,-,N/A,Rain,Rain,260,2013-09-10 07:57:00
3:16 AM,66.2,64.4,94,29.74,5.0,West,4.6,-,N/A,,Overcast,260,2013-09-10 08:16:00
3:36 AM,66.2,64.4,94,29.74,5.0,West,5.8,-,N/A,,Overcast,260,2013-09-10 08:36:00
3:57 AM,66.2,64.4,94,29.75,3.0,West,5.8,-,N/A,,Overcast,270,2013-09-10 08:57:00
4:16 AM,64.4,64.4,100,29.75,7.0,West,3.5,-,N/A,,Overcast,270,2013-09-10 09:16:00
4:36 AM,64.4,64.4,100,29.76,10.0,West,9.2,-,N/A,,Overcast,270,2013-09-10 09:36:00
4:57 AM,64.4,64.4,100,29.77,10.0,West,8.1,-,N/A,,Overcast,270,2013-09-10 09:57:00
5:16 AM,64.4,64.4,100,29.77,7.0,West,5.8,-,N/A,,Overcast,270,2013-09-10 10:16:00
5:36 AM,64.4,62.6,94,29.77,10.0,WSW,6.9,-,N/A,,Overcast,250,2013-09-10 10:36:00
5:57 AM,64.4,62.6,94,29.78,4.0,West,13.8,-,N/A,Rain,Rain,280,2013-09-10 10:57:00
6:16 AM,62.6,60.8,94,29.78,10.0,West,8.1,-,N/A,,Mostly Cloudy,260,2013-09-10 11:16:00
6:36 AM,62.6,60.8,94,29.79,10.0,West,6.9,-,N/A,,Mostly Cloudy,260,2013-09-10 11:36:00
6:57 AM,62.6,60.8,94,29.81,10.0,WSW,8.1,-,N/A,,Mostly Cloudy,250,2013-09-10 11:57:00
7:16 AM,62.6,60.8,94,29.81,10.0,WSW,5.8,-,N/A,,Overcast,250,2013-09-10 12:16:00
7:36 AM,62.6,60.8,94,29.82,7.0,West,8.1,-,N/A,,Overcast,270,2013-09-10 12:36:00
7:57 AM,62.6,60.8,94,29.83,10.0,West,8.1,-,N/A,,Overcast,270,2013-09-10 12:57:00
8:16 AM,62.6,60.8,94,29.83,10.0,West,6.9,-,N/A,,Overcast,280,2013-09-10 13:16:00
8:36 AM,62.6,60.8,94,29.83,10.0,West,6.9,-,N/A,,Overcast,270,2013-09-10 13:36:00
8:57 AM,62.6,60.8,94,29.83,10.0,WSW,6.9,-,N/A,,Overcast,250,2013-09-10 13:57:00
9:16 AM,62.6,60.8,94,29.82,10.0,West,6.9,-,N/A,,Overcast,270,2013-09-10 14:16:00
9:37 AM,62.6,60.8,94,29.82,10.0,West,5.8,-,N/A,,Overcast,270,2013-09-10 14:37:00
9:56 AM,64.4,62.6,94,29.83,10.0,West,6.9,-,N/A,,Overcast,270,2013-09-10 14:56:00
10:16 AM,64.4,60.8,88,29.83,10.0,West,8.1,-,N/A,,Overcast,270,2013-09-10 15:16:00
10:37 AM,64.4,62.6,94,29.84,10.0,West,6.9,-,N/A,,Overcast,270,2013-09-10 15:37:00
10:56 AM,64.4,62.6,94,29.85,10.0,West,6.9,-,N/A,,Overcast,260,2013-09-10 15:56:00
11:16 AM,64.4,62.6,94,29.85,10.0,West,4.6,-,N/A,,Overcast,270,2013-09-10 16:16:00
11:37 AM,64.4,60.8,88,29.86,10.0,West,6.9,-,N/A,,Overcast,260,2013-09-10 16:37:00
11:56 AM,66.2,62.6,88,29.86,10.0,WSW,9.2,-,N/A,,Overcast,240,2013-09-10 16:56:00
12:16 PM,68.0,62.6,83,29.86,10.0,West,8.1,-,N/A,,Mostly Cloudy,260,2013-09-10 17:16:00
12:37 PM,69.8,62.6,78,29.86,10.0,West,8.1,-,N/A,,Mostly Cloudy,260,2013-09-10 17:37:00
12:56 PM,69.8,62.6,78,29.86,10.0,West,9.2,-,N/A,,Mostly Cloudy,260,2013-09-10 17:56:00
1:17 PM,71.6,60.8,69,29.86,10.0,West,9.2,17.3,N/A,,Mostly Cloudy,260,2013-09-10 18:17:00
1:36 PM,71.6,62.6,73,29.86,10.0,West,8.1,-,N/A,,Mostly Cloudy,280,2013-09-10 18:36:00
1:56 PM,69.8,60.8,73,29.86,10.0,West,11.5,-,N/A,,Mostly Cloudy,280,2013-09-10 18:56:00
2:17 PM,71.6,60.8,69,29.86,10.0,West,9.2,-,N/A,,Scattered Clouds,260,2013-09-10 19:17:00
2:36 PM,69.8,60.8,73,29.86,10.0,West,10.4,-,N/A,,Mostly Cloudy,270,2013-09-10 19:36:00
2:56 PM,73.4,60.8,65,29.86,10.0,West,12.7,-,N/A,,Mostly Cloudy,270,2013-09-10 19:56:00
3:17 PM,73.4,57.2,57,29.86,10.0,West,12.7,19.6,N/A,,Scattered Clouds,270,2013-09-10 20:17:00
3:36 PM,73.4,57.2,57,29.86,10.0,West,11.5,-,N/A,,Scattered Clouds,270,2013-09-10 20:36:00
3:56 PM,73.4,57.2,57,29.86,10.0,WSW,8.1,-,N/A,,Scattered Clouds,250,2013-09-10 20:56:00
4:17 PM,73.4,57.2,57,29.86,10.0,West,11.5,19.6,N/A,,Scattered Clouds,260,2013-09-10 21:17:00
4:36 PM,73.4,57.2,57,29.86,10.0,West,8.1,-,N/A,,Scattered Clouds,260,2013-09-10 21:36:00
4:57 PM,71.6,57.2,60,29.87,10.0,West,9.2,-,N/A,,Scattered Clouds,280,2013-09-10 21:57:00
5:16 PM,73.4,57.2,57,29.87,10.0,West,9.2,-,N/A,,Clear,270,2013-09-10 22:16:00
5:36 PM,71.6,57.2,60,29.87,10.0,West,10.4,-,N/A,,Scattered Clouds,270,2013-09-10 22:36:00
5:57 PM,71.6,57.2,60,29.87,10.0,West,11.5,-,N/A,,Clear,280,2013-09-10 22:57:00
6:16 PM,71.6,59.0,64,29.88,10.0,West,6.9,-,N/A,,Clear,270,2013-09-10 23:16:00
6:37 PM,68.0,59.0,73,29.88,10.0,West,8.1,-,N/A,,Clear,270,2013-09-10 23:37:00
6:56 PM,66.2,59.0,78,29.89,10.0,West,5.8,-,N/A,,Clear,270,2013-09-10 23:56:00
7:16 PM,66.2,60.8,83,29.90,10.0,West,3.5,-,N/A,,Scattered Clouds,270,2013-09-11 00:16:00
7:36 PM,64.4,59.0,83,29.90,10.0,Calm,Calm,-,N/A,,Clear,0,2013-09-11 00:36:00
7:56 PM,64.4,59.0,83,29.90,10.0,Calm,Calm,-,N/A,,Clear,0,2013-09-11 00:56:00
8:16 PM,64.4,59.0,83,29.91,10.0,Calm,Calm,-,N/A,,Clear,0,2013-09-11 01:16:00
8:21 PM,62.6,57.2,82,29.91,10.0,Calm,Calm,-,N/A,,Clear,0,2013-09-11 01:21:00
8:57 PM,60.8,57.2,88,29.93,10.0,Calm,Calm,-,N/A,,Clear,0,2013-09-11 01:57:00
9:16 PM,59.0,57.2,94,29.93,10.0,Calm,Calm,-,N/A,,Clear,0,2013-09-11 02:16:00
9:36 PM,59.0,57.2,94,29.93,10.0,Calm,Calm,-,N/A,,Clear,0,2013-09-11 02:36:00
9:56 PM,59.0,57.2,94,29.93,10.0,Calm,Calm,-,N/A,,Clear,0,2013-09-11 02:56:00
10:16 PM,57.2,57.2,100,29.93,10.0,Calm,Calm,-,N/A,,Clear,0,2013-09-11 03:16:00
11:58 PM,59.0,57.2,94,29.91,10.0,SW,3.5,-,N/A,,Clear,230,2013-09-11 04:58:00